sensor_id;sensor_type;location;lat;lon;timestamp;temperature;humidity
48734;DHT22;34530;52.084;5.146;2022-10-16T00:01:24;18.30;76.10
48734;DHT22;34530;52.084;5.146;2022-10-16T00:03:51;18.30;76.00
48734;DHT22;34530;52.084;5.146;2022-10-16T00:06:19;18.30;76.00
48734;DHT22;34530;52.084;5.146;2022-10-16T00:08:45;18.30;75.90
48734;DHT22;34530;52.084;5.146;2022-10-16T00:11:16;18.30;75.90
48734;DHT22;34530;52.084;5.146;2022-10-16T00:13:43;18.30;75.80
48734;DHT22;34530;52.084;5.146;2022-10-16T00:16:10;18.30;75.80
48734;DHT22;34530;52.084;5.146;2022-10-16T00:18:36;18.30;75.80
48734;DHT22;34530;52.084;5.146;2022-10-16T00:21:10;18.30;75.70
48734;DHT22;34530;52.084;5.146;2022-10-16T00:23:37;18.30;75.60
48734;DHT22;34530;52.084;5.146;2022-10-16T00:26:05;18.30;75.60
48734;DHT22;34530;52.084;5.146;2022-10-16T00:28:32;18.30;75.60
48734;DHT22;34530;52.084;5.146;2022-10-16T00:30:58;18.30;75.60
48734;DHT22;34530;52.084;5.146;2022-10-16T00:33:24;18.30;76.40
48734;DHT22;34530;52.084;5.146;2022-10-16T00:35:49;18.30;76.40
48734;DHT22;34530;52.084;5.146;2022-10-16T00:38:16;18.30;75.80
48734;DHT22;34530;52.084;5.146;2022-10-16T00:40:41;18.30;75.80
48734;DHT22;34530;52.084;5.146;2022-10-16T00:43:32;18.30;75.90
48734;DHT22;34530;52.084;5.146;2022-10-16T00:45:58;18.30;75.90
48734;DHT22;34530;52.084;5.146;2022-10-16T00:48:24;18.20;75.80
48734;DHT22;34530;52.084;5.146;2022-10-16T00:50:50;18.20;75.70
48734;DHT22;34530;52.084;5.146;2022-10-16T00:53:16;18.20;75.70
48734;DHT22;34530;52.084;5.146;2022-10-16T00:55:42;18.30;75.70
48734;DHT22;34530;52.084;5.146;2022-10-16T00:58:08;18.20;75.70
48734;DHT22;34530;52.084;5.146;2022-10-16T01:00:34;18.20;75.70
48734;DHT22;34530;52.084;5.146;2022-10-16T01:03:01;18.20;75.60
48734;DHT22;34530;52.084;5.146;2022-10-16T01:05:35;18.20;75.50
48734;DHT22;34530;52.084;5.146;2022-10-16T01:08:08;18.30;75.60
48734;DHT22;34530;52.084;5.146;2022-10-16T01:10:52;18.20;75.60
48734;DHT22;34530;52.084;5.146;2022-10-16T01:15:54;18.20;75.50
48734;DHT22;34530;52.084;5.146;2022-10-16T01:21:09;18.20;75.40
48734;DHT22;34530;52.084;5.146;2022-10-16T01:32:01;18.20;75.40
48734;DHT22;34530;52.084;5.146;2022-10-16T01:35:38;18.20;75.30
48734;DHT22;34530;52.084;5.146;2022-10-16T01:38:40;18.20;75.30
48734;DHT22;34530;52.084;5.146;2022-10-16T01:40:36;18.20;75.30
48734;DHT22;34530;52.084;5.146;2022-10-16T01:43:06;18.20;75.30
48734;DHT22;34530;52.084;5.146;2022-10-16T01:45:34;18.20;75.30
48734;DHT22;34530;52.084;5.146;2022-10-16T01:48:01;18.20;75.20
48734;DHT22;34530;52.084;5.146;2022-10-16T01:50:35;18.20;75.20
48734;DHT22;34530;52.084;5.146;2022-10-16T01:53:04;18.20;75.20
48734;DHT22;34530;52.084;5.146;2022-10-16T01:55:37;18.20;75.20
48734;DHT22;34530;52.084;5.146;2022-10-16T01:58:06;18.20;75.10
48734;DHT22;34530;52.084;5.146;2022-10-16T02:00:32;18.20;75.10
48734;DHT22;34530;52.084;5.146;2022-10-16T02:03:01;18.10;75.10
48734;DHT22;34530;52.084;5.146;2022-10-16T02:05:32;18.20;75.10
48734;DHT22;34530;52.084;5.146;2022-10-16T02:07:59;18.20;75.10
48734;DHT22;34530;52.084;5.146;2022-10-16T02:10:25;18.20;75.10
48734;DHT22;34530;52.084;5.146;2022-10-16T02:13:03;18.20;75.00
48734;DHT22;34530;52.084;5.146;2022-10-16T02:15:30;18.20;75.00
48734;DHT22;34530;52.084;5.146;2022-10-16T02:17:56;18.10;75.00
48734;DHT22;34530;52.084;5.146;2022-10-16T02:20:25;18.10;75.00
48734;DHT22;34530;52.084;5.146;2022-10-16T02:22:52;18.20;75.00
48734;DHT22;34530;52.084;5.146;2022-10-16T02:25:27;18.10;75.00
48734;DHT22;34530;52.084;5.146;2022-10-16T02:30:44;18.10;74.90
48734;DHT22;34530;52.084;5.146;2022-10-16T02:33:13;18.10;74.90
48734;DHT22;34530;52.084;5.146;2022-10-16T02:35:41;18.10;74.90
48734;DHT22;34530;52.084;5.146;2022-10-16T02:38:09;18.10;74.90
48734;DHT22;34530;52.084;5.146;2022-10-16T02:40:36;18.10;74.90
48734;DHT22;34530;52.084;5.146;2022-10-16T02:43:03;18.10;74.90
48734;DHT22;34530;52.084;5.146;2022-10-16T02:45:29;18.10;74.90
48734;DHT22;34530;52.084;5.146;2022-10-16T02:47:55;18.10;74.90
48734;DHT22;34530;52.084;5.146;2022-10-16T02:50:21;18.10;74.90
48734;DHT22;34530;52.084;5.146;2022-10-16T02:52:47;18.10;74.80
48734;DHT22;34530;52.084;5.146;2022-10-16T02:55:13;18.10;74.90
48734;DHT22;34530;52.084;5.146;2022-10-16T02:57:39;18.10;74.80
48734;DHT22;34530;52.084;5.146;2022-10-16T03:00:07;18.10;74.80
48734;DHT22;34530;52.084;5.146;2022-10-16T03:02:33;18.10;74.80
48734;DHT22;34530;52.084;5.146;2022-10-16T03:04:58;18.10;74.80
48734;DHT22;34530;52.084;5.146;2022-10-16T03:07:24;18.10;74.80
48734;DHT22;34530;52.084;5.146;2022-10-16T03:09:50;18.10;74.80
48734;DHT22;34530;52.084;5.146;2022-10-16T03:12:15;18.10;74.80
48734;DHT22;34530;52.084;5.146;2022-10-16T03:14:41;18.10;74.80
48734;DHT22;34530;52.084;5.146;2022-10-16T03:17:06;18.10;74.80
48734;DHT22;34530;52.084;5.146;2022-10-16T03:19:32;18.10;74.70
48734;DHT22;34530;52.084;5.146;2022-10-16T03:21:57;18.10;74.80
48734;DHT22;34530;52.084;5.146;2022-10-16T03:24:23;18.10;75.50
48734;DHT22;34530;52.084;5.146;2022-10-16T03:26:49;18.10;74.80
48734;DHT22;34530;52.084;5.146;2022-10-16T03:29:14;18.10;74.70
48734;DHT22;34530;52.084;5.146;2022-10-16T03:31:40;18.10;74.70
48734;DHT22;34530;52.084;5.146;2022-10-16T03:34:05;18.10;74.70
48734;DHT22;34530;52.084;5.146;2022-10-16T03:36:31;18.10;74.70
48734;DHT22;34530;52.084;5.146;2022-10-16T03:38:57;18.10;74.70
48734;DHT22;34530;52.084;5.146;2022-10-16T03:41:22;18.10;74.70
48734;DHT22;34530;52.084;5.146;2022-10-16T03:43:48;18.10;74.80
48734;DHT22;34530;52.084;5.146;2022-10-16T03:46:13;18.10;74.70
48734;DHT22;34530;52.084;5.146;2022-10-16T03:48:39;18.10;74.80
48734;DHT22;34530;52.084;5.146;2022-10-16T03:51:05;18.10;74.80
48734;DHT22;34530;52.084;5.146;2022-10-16T03:53:31;18.10;74.80
48734;DHT22;34530;52.084;5.146;2022-10-16T03:55:56;18.10;74.80
48734;DHT22;34530;52.084;5.146;2022-10-16T03:58:22;18.10;74.80
48734;DHT22;34530;52.084;5.146;2022-10-16T04:00:48;18.10;74.80
48734;DHT22;34530;52.084;5.146;2022-10-16T04:03:14;18.10;74.80
48734;DHT22;34530;52.084;5.146;2022-10-16T04:05:39;18.10;74.80
48734;DHT22;34530;52.084;5.146;2022-10-16T04:08:05;18.10;74.80
48734;DHT22;34530;52.084;5.146;2022-10-16T04:10:31;18.00;74.70
48734;DHT22;34530;52.084;5.146;2022-10-16T04:12:56;18.00;74.70
48734;DHT22;34530;52.084;5.146;2022-10-16T04:15:23;18.10;74.80
48734;DHT22;34530;52.084;5.146;2022-10-16T04:17:49;18.00;75.40
48734;DHT22;34530;52.084;5.146;2022-10-16T04:20:14;18.10;74.80
48734;DHT22;34530;52.084;5.146;2022-10-16T04:22:40;18.00;74.70
48734;DHT22;34530;52.084;5.146;2022-10-16T04:25:06;18.10;74.70
48734;DHT22;34530;52.084;5.146;2022-10-16T04:27:32;18.10;74.70
48734;DHT22;34530;52.084;5.146;2022-10-16T04:29:58;18.10;75.50
48734;DHT22;34530;52.084;5.146;2022-10-16T04:32:24;18.00;74.70
48734;DHT22;34530;52.084;5.146;2022-10-16T04:34:49;18.00;74.70
48734;DHT22;34530;52.084;5.146;2022-10-16T04:37:15;18.00;74.70
48734;DHT22;34530;52.084;5.146;2022-10-16T04:39:41;18.00;74.70
48734;DHT22;34530;52.084;5.146;2022-10-16T04:42:06;18.00;74.70
48734;DHT22;34530;52.084;5.146;2022-10-16T04:44:32;18.00;74.70
48734;DHT22;34530;52.084;5.146;2022-10-16T04:46:57;18.00;75.00
48734;DHT22;34530;52.084;5.146;2022-10-16T04:49:23;18.00;74.70
48734;DHT22;34530;52.084;5.146;2022-10-16T04:51:48;18.00;74.70
48734;DHT22;34530;52.084;5.146;2022-10-16T04:54:14;18.00;74.60
48734;DHT22;34530;52.084;5.146;2022-10-16T04:56:40;18.00;75.40
48734;DHT22;34530;52.084;5.146;2022-10-16T04:59:12;18.00;74.60
48734;DHT22;34530;52.084;5.146;2022-10-16T05:01:38;18.00;74.60
48734;DHT22;34530;52.084;5.146;2022-10-16T05:04:04;18.00;74.60
48734;DHT22;34530;52.084;5.146;2022-10-16T05:06:29;18.00;74.60
48734;DHT22;34530;52.084;5.146;2022-10-16T05:08:55;18.00;74.60
48734;DHT22;34530;52.084;5.146;2022-10-16T05:11:21;18.00;74.60
48734;DHT22;34530;52.084;5.146;2022-10-16T05:13:46;18.00;74.60
48734;DHT22;34530;52.084;5.146;2022-10-16T05:16:12;18.00;74.60
48734;DHT22;34530;52.084;5.146;2022-10-16T05:18:37;18.00;74.60
48734;DHT22;34530;52.084;5.146;2022-10-16T05:21:03;18.00;74.60
48734;DHT22;34530;52.084;5.146;2022-10-16T05:23:29;18.00;74.50
48734;DHT22;34530;52.084;5.146;2022-10-16T05:25:56;18.00;74.50
48734;DHT22;34530;52.084;5.146;2022-10-16T05:28:26;18.10;74.60
48734;DHT22;34530;52.084;5.146;2022-10-16T05:30:52;18.00;74.60
48734;DHT22;34530;52.084;5.146;2022-10-16T05:33:22;18.00;74.60
48734;DHT22;34530;52.084;5.146;2022-10-16T05:35:48;18.00;74.50
48734;DHT22;34530;52.084;5.146;2022-10-16T05:38:15;18.00;74.60
48734;DHT22;34530;52.084;5.146;2022-10-16T05:40:41;18.00;74.50
48734;DHT22;34530;52.084;5.146;2022-10-16T05:43:06;18.00;74.50
48734;DHT22;34530;52.084;5.146;2022-10-16T05:45:32;18.00;74.50
48734;DHT22;34530;52.084;5.146;2022-10-16T05:47:58;18.00;74.50
48734;DHT22;34530;52.084;5.146;2022-10-16T05:50:23;18.00;74.50
48734;DHT22;34530;52.084;5.146;2022-10-16T05:52:49;18.00;74.50
48734;DHT22;34530;52.084;5.146;2022-10-16T05:55:14;18.00;74.50
48734;DHT22;34530;52.084;5.146;2022-10-16T05:57:40;18.00;74.60
48734;DHT22;34530;52.084;5.146;2022-10-16T06:00:07;18.00;74.50
48734;DHT22;34530;52.084;5.146;2022-10-16T06:02:32;18.00;74.50
48734;DHT22;34530;52.084;5.146;2022-10-16T06:04:58;18.00;74.50
48734;DHT22;34530;52.084;5.146;2022-10-16T06:07:23;18.00;75.20
48734;DHT22;34530;52.084;5.146;2022-10-16T06:09:50;18.00;74.50
48734;DHT22;34530;52.084;5.146;2022-10-16T06:12:16;18.00;74.40
48734;DHT22;34530;52.084;5.146;2022-10-16T06:14:42;18.00;75.20
48734;DHT22;34530;52.084;5.146;2022-10-16T06:17:08;18.00;74.40
48734;DHT22;34530;52.084;5.146;2022-10-16T06:19:33;18.00;74.50
48734;DHT22;34530;52.084;5.146;2022-10-16T06:21:59;17.90;74.40
48734;DHT22;34530;52.084;5.146;2022-10-16T06:24:25;18.00;74.50
48734;DHT22;34530;52.084;5.146;2022-10-16T06:26:51;18.00;74.50
48734;DHT22;34530;52.084;5.146;2022-10-16T06:29:16;17.90;74.40
48734;DHT22;34530;52.084;5.146;2022-10-16T06:31:42;18.00;74.40
48734;DHT22;34530;52.084;5.146;2022-10-16T06:34:09;18.00;74.40
48734;DHT22;34530;52.084;5.146;2022-10-16T06:36:37;17.90;74.40
48734;DHT22;34530;52.084;5.146;2022-10-16T06:39:04;17.90;74.40
48734;DHT22;34530;52.084;5.146;2022-10-16T06:41:30;17.90;74.40
48734;DHT22;34530;52.084;5.146;2022-10-16T06:43:56;17.90;74.40
48734;DHT22;34530;52.084;5.146;2022-10-16T06:46:23;17.90;74.30
48734;DHT22;34530;52.084;5.146;2022-10-16T06:48:49;17.90;74.40
48734;DHT22;34530;52.084;5.146;2022-10-16T06:51:17;17.90;74.40
48734;DHT22;34530;52.084;5.146;2022-10-16T06:53:45;17.90;74.30
48734;DHT22;34530;52.084;5.146;2022-10-16T06:56:16;17.90;74.30
48734;DHT22;34530;52.084;5.146;2022-10-16T06:58:42;17.90;74.40
48734;DHT22;34530;52.084;5.146;2022-10-16T07:01:09;17.90;75.20
48734;DHT22;34530;52.084;5.146;2022-10-16T07:03:39;17.90;74.60
48734;DHT22;34530;52.084;5.146;2022-10-16T07:06:07;17.90;74.60
48734;DHT22;34530;52.084;5.146;2022-10-16T07:08:34;17.90;74.70
48734;DHT22;34530;52.084;5.146;2022-10-16T07:11:08;17.90;74.80
48734;DHT22;34530;52.084;5.146;2022-10-16T07:13:35;17.90;74.80
48734;DHT22;34530;52.084;5.146;2022-10-16T07:16:09;17.90;74.90
48734;DHT22;34530;52.084;5.146;2022-10-16T07:18:36;17.90;75.00
48734;DHT22;34530;52.084;5.146;2022-10-16T07:21:19;17.90;75.00
48734;DHT22;34530;52.084;5.146;2022-10-16T07:23:50;17.90;75.10
48734;DHT22;34530;52.084;5.146;2022-10-16T07:26:16;17.90;75.10
48734;DHT22;34530;52.084;5.146;2022-10-16T07:28:42;17.90;75.10
48734;DHT22;34530;52.084;5.146;2022-10-16T07:31:11;17.90;75.20
48734;DHT22;34530;52.084;5.146;2022-10-16T07:33:38;18.00;75.20
48734;DHT22;34530;52.084;5.146;2022-10-16T07:36:05;18.00;75.20
48734;DHT22;34530;52.084;5.146;2022-10-16T07:38:30;18.00;75.20
48734;DHT22;34530;52.084;5.146;2022-10-16T07:40:58;18.00;75.20
48734;DHT22;34530;52.084;5.146;2022-10-16T07:43:24;18.00;75.20
48734;DHT22;34530;52.084;5.146;2022-10-16T07:45:50;18.00;75.10
48734;DHT22;34530;52.084;5.146;2022-10-16T07:48:16;18.00;75.10
48734;DHT22;34530;52.084;5.146;2022-10-16T07:50:42;18.00;75.10
48734;DHT22;34530;52.084;5.146;2022-10-16T07:53:08;18.00;75.00
48734;DHT22;34530;52.084;5.146;2022-10-16T07:55:34;18.00;75.00
48734;DHT22;34530;52.084;5.146;2022-10-16T07:57:59;18.00;75.00
48734;DHT22;34530;52.084;5.146;2022-10-16T08:00:25;18.00;75.00
48734;DHT22;34530;52.084;5.146;2022-10-16T08:02:50;18.00;75.00
48734;DHT22;34530;52.084;5.146;2022-10-16T08:05:16;18.00;74.90
48734;DHT22;34530;52.084;5.146;2022-10-16T08:07:41;18.00;74.90
48734;DHT22;34530;52.084;5.146;2022-10-16T08:10:15;18.00;75.60
48734;DHT22;34530;52.084;5.146;2022-10-16T08:12:41;18.00;74.80
48734;DHT22;34530;52.084;5.146;2022-10-16T08:15:07;18.00;74.80
48734;DHT22;34530;52.084;5.146;2022-10-16T08:17:33;18.00;74.80
48734;DHT22;34530;52.084;5.146;2022-10-16T08:19:59;18.00;74.80
48734;DHT22;34530;52.084;5.146;2022-10-16T08:22:24;18.00;74.70
48734;DHT22;34530;52.084;5.146;2022-10-16T08:24:50;18.00;74.70
48734;DHT22;34530;52.084;5.146;2022-10-16T08:27:15;18.00;74.60
48734;DHT22;34530;52.084;5.146;2022-10-16T08:29:41;18.00;74.60
48734;DHT22;34530;52.084;5.146;2022-10-16T08:32:06;18.00;74.60
48734;DHT22;34530;52.084;5.146;2022-10-16T08:34:32;18.00;74.60
48734;DHT22;34530;52.084;5.146;2022-10-16T08:36:57;18.00;74.50
48734;DHT22;34530;52.084;5.146;2022-10-16T08:39:23;18.00;74.50
48734;DHT22;34530;52.084;5.146;2022-10-16T08:48:34;18.00;74.30
48734;DHT22;34530;52.084;5.146;2022-10-16T08:50:37;18.00;74.40
48734;DHT22;34530;52.084;5.146;2022-10-16T08:53:04;18.00;74.30
48734;DHT22;34530;52.084;5.146;2022-10-16T08:55:57;18.00;74.30
48734;DHT22;34530;52.084;5.146;2022-10-16T08:58:29;18.00;74.20
48734;DHT22;34530;52.084;5.146;2022-10-16T09:00:58;18.00;74.20
48734;DHT22;34530;52.084;5.146;2022-10-16T09:03:44;18.10;74.20
48734;DHT22;34530;52.084;5.146;2022-10-16T09:21:20;18.10;74.00
48734;DHT22;34530;52.084;5.146;2022-10-16T09:23:25;18.20;74.00
48734;DHT22;34530;52.084;5.146;2022-10-16T09:25:51;18.20;74.00
48734;DHT22;34530;52.084;5.146;2022-10-16T09:28:18;18.20;74.00
48734;DHT22;34530;52.084;5.146;2022-10-16T09:30:45;18.20;73.90
48734;DHT22;34530;52.084;5.146;2022-10-16T09:33:12;18.20;73.90
48734;DHT22;34530;52.084;5.146;2022-10-16T09:35:41;18.20;73.80
48734;DHT22;34530;52.084;5.146;2022-10-16T09:38:08;18.30;73.80
48734;DHT22;34530;52.084;5.146;2022-10-16T09:40:38;18.30;73.80
48734;DHT22;34530;52.084;5.146;2022-10-16T09:43:49;18.30;73.70
48734;DHT22;34530;52.084;5.146;2022-10-16T09:46:27;18.30;73.60
48734;DHT22;34530;52.084;5.146;2022-10-16T09:49:22;18.40;73.60
48734;DHT22;34530;52.084;5.146;2022-10-16T09:51:49;18.40;73.50
48734;DHT22;34530;52.084;5.146;2022-10-16T09:54:20;18.40;73.50
48734;DHT22;34530;52.084;5.146;2022-10-16T09:56:47;18.40;73.40
48734;DHT22;34530;52.084;5.146;2022-10-16T09:59:21;18.50;73.40
48734;DHT22;34530;52.084;5.146;2022-10-16T10:01:55;18.50;73.30
48734;DHT22;34530;52.084;5.146;2022-10-16T10:04:25;18.50;73.10
48734;DHT22;34530;52.084;5.146;2022-10-16T10:06:55;18.60;73.10
48734;DHT22;34530;52.084;5.146;2022-10-16T10:09:24;18.60;73.00
48734;DHT22;34530;52.084;5.146;2022-10-16T10:12:00;18.60;73.00
48734;DHT22;34530;52.084;5.146;2022-10-16T10:14:34;18.60;72.90
48734;DHT22;34530;52.084;5.146;2022-10-16T10:20:22;18.60;72.70
48734;DHT22;34530;52.084;5.146;2022-10-16T10:22:45;18.60;72.60
48734;DHT22;34530;52.084;5.146;2022-10-16T10:36:50;18.70;72.30
48734;DHT22;34530;52.084;5.146;2022-10-16T10:39:38;18.70;72.20
48734;DHT22;34530;52.084;5.146;2022-10-16T11:01:33;18.80;71.80
48734;DHT22;34530;52.084;5.146;2022-10-16T11:04:23;18.80;71.70
48734;DHT22;34530;52.084;5.146;2022-10-16T11:09:31;18.90;71.70
48734;DHT22;34530;52.084;5.146;2022-10-16T11:12:00;18.90;71.50
48734;DHT22;34530;52.084;5.146;2022-10-16T11:14:30;18.90;71.40
48734;DHT22;34530;52.084;5.146;2022-10-16T11:17:04;18.90;71.40
48734;DHT22;34530;52.084;5.146;2022-10-16T11:19:49;18.90;71.30
48734;DHT22;34530;52.084;5.146;2022-10-16T11:22:34;18.90;71.20
48734;DHT22;34530;52.084;5.146;2022-10-16T11:25:18;18.90;71.80
48734;DHT22;34530;52.084;5.146;2022-10-16T11:30:52;19.00;71.00
48734;DHT22;34530;52.084;5.146;2022-10-16T11:36:35;18.90;70.80
48734;DHT22;34530;52.084;5.146;2022-10-16T11:42:10;19.00;70.70
48734;DHT22;34530;52.084;5.146;2022-10-16T11:47:40;19.00;70.60
48734;DHT22;34530;52.084;5.146;2022-10-16T11:50:28;19.00;70.40
48734;DHT22;34530;52.084;5.146;2022-10-16T11:53:03;19.00;70.30
48734;DHT22;34530;52.084;5.146;2022-10-16T11:55:37;19.00;70.30
48734;DHT22;34530;52.084;5.146;2022-10-16T12:03:42;19.00;70.20
48734;DHT22;34530;52.084;5.146;2022-10-16T12:08:50;19.10;70.00
48734;DHT22;34530;52.084;5.146;2022-10-16T12:11:31;19.00;70.00
48734;DHT22;34530;52.084;5.146;2022-10-16T12:16:58;19.10;69.80
48734;DHT22;34530;52.084;5.146;2022-10-16T12:19:31;19.10;69.80
48734;DHT22;34530;52.084;5.146;2022-10-16T12:21:59;19.10;69.60
48734;DHT22;34530;52.084;5.146;2022-10-16T12:24:37;19.10;69.50
48734;DHT22;34530;52.084;5.146;2022-10-16T12:27:06;19.10;69.40
48734;DHT22;34530;52.084;5.146;2022-10-16T12:29:41;19.10;69.40
48734;DHT22;34530;52.084;5.146;2022-10-16T12:32:38;19.10;69.30
48734;DHT22;34530;52.084;5.146;2022-10-16T12:35:16;19.10;69.20
48734;DHT22;34530;52.084;5.146;2022-10-16T12:37:44;19.10;69.20
48734;DHT22;34530;52.084;5.146;2022-10-16T12:40:36;19.10;69.20
48734;DHT22;34530;52.084;5.146;2022-10-16T12:45:46;19.10;69.00
48734;DHT22;34530;52.084;5.146;2022-10-16T12:48:21;19.10;69.00
48734;DHT22;34530;52.084;5.146;2022-10-16T12:50:47;19.20;68.90
48734;DHT22;34530;52.084;5.146;2022-10-16T12:53:22;19.20;68.90
48734;DHT22;34530;52.084;5.146;2022-10-16T12:56:09;19.10;68.80
48734;DHT22;34530;52.084;5.146;2022-10-16T13:01:31;19.20;68.70
48734;DHT22;34530;52.084;5.146;2022-10-16T13:06:51;19.20;68.60
48734;DHT22;34530;52.084;5.146;2022-10-16T13:09:30;19.20;68.50
48734;DHT22;34530;52.084;5.146;2022-10-16T13:20:34;19.20;68.20
48734;DHT22;34530;52.084;5.146;2022-10-16T13:23:09;19.20;68.10
48734;DHT22;34530;52.084;5.146;2022-10-16T13:28:28;19.20;68.00
48734;DHT22;34530;52.084;5.146;2022-10-16T13:30:57;19.30;68.00
48734;DHT22;34530;52.084;5.146;2022-10-16T13:33:30;19.30;67.80
48734;DHT22;34530;52.084;5.146;2022-10-16T13:35:57;19.20;67.70
48734;DHT22;34530;52.084;5.146;2022-10-16T13:38:29;19.30;67.70
48734;DHT22;34530;52.084;5.146;2022-10-16T13:40:59;19.30;67.60
48734;DHT22;34530;52.084;5.146;2022-10-16T13:46:16;19.30;67.50
48734;DHT22;34530;52.084;5.146;2022-10-16T13:48:42;19.30;67.30
48734;DHT22;34530;52.084;5.146;2022-10-16T13:51:18;19.30;67.30
48734;DHT22;34530;52.084;5.146;2022-10-16T13:53:45;19.30;67.20
48734;DHT22;34530;52.084;5.146;2022-10-16T13:56:13;19.30;67.20
48734;DHT22;34530;52.084;5.146;2022-10-16T13:58:39;19.30;67.10
48734;DHT22;34530;52.084;5.146;2022-10-16T14:03:45;19.40;67.10
48734;DHT22;34530;52.084;5.146;2022-10-16T14:06:14;19.40;67.10
48734;DHT22;34530;52.084;5.146;2022-10-16T14:08:51;19.30;67.00
48734;DHT22;34530;52.084;5.146;2022-10-16T14:11:23;19.40;66.90
48734;DHT22;34530;52.084;5.146;2022-10-16T14:13:50;19.40;66.90
48734;DHT22;34530;52.084;5.146;2022-10-16T14:16:30;19.40;66.90
48734;DHT22;34530;52.084;5.146;2022-10-16T14:19:02;19.40;66.80
48734;DHT22;34530;52.084;5.146;2022-10-16T14:21:30;19.40;66.80
48734;DHT22;34530;52.084;5.146;2022-10-16T14:23:57;19.40;66.80
48734;DHT22;34530;52.084;5.146;2022-10-16T14:26:27;19.40;66.80
48734;DHT22;34530;52.084;5.146;2022-10-16T14:31:37;19.50;66.70
48734;DHT22;34530;52.084;5.146;2022-10-16T14:34:05;19.40;66.70
48734;DHT22;34530;52.084;5.146;2022-10-16T14:36:48;19.40;66.70
48734;DHT22;34530;52.084;5.146;2022-10-16T14:39:19;19.40;66.70
48734;DHT22;34530;52.084;5.146;2022-10-16T14:41:47;19.50;66.70
48734;DHT22;34530;52.084;5.146;2022-10-16T14:44:13;19.50;66.70
48734;DHT22;34530;52.084;5.146;2022-10-16T14:46:41;19.50;66.80
48734;DHT22;34530;52.084;5.146;2022-10-16T14:51:40;19.50;66.90
48734;DHT22;34530;52.084;5.146;2022-10-16T14:54:08;19.50;66.80
48734;DHT22;34530;52.084;5.146;2022-10-16T14:56:51;19.50;66.70
48734;DHT22;34530;52.084;5.146;2022-10-16T14:59:39;19.50;66.70
48734;DHT22;34530;52.084;5.146;2022-10-16T15:02:32;19.50;66.70
48734;DHT22;34530;52.084;5.146;2022-10-16T15:05:13;19.50;67.40
48734;DHT22;34530;52.084;5.146;2022-10-16T15:07:39;19.50;66.70
48734;DHT22;34530;52.084;5.146;2022-10-16T15:10:04;19.50;66.80
48734;DHT22;34530;52.084;5.146;2022-10-16T15:12:30;19.50;66.90
48734;DHT22;34530;52.084;5.146;2022-10-16T15:14:56;19.50;66.90
48734;DHT22;34530;52.084;5.146;2022-10-16T15:17:21;19.50;66.90
48734;DHT22;34530;52.084;5.146;2022-10-16T15:19:47;19.50;66.80
48734;DHT22;34530;52.084;5.146;2022-10-16T15:22:12;19.50;66.80
48734;DHT22;34530;52.084;5.146;2022-10-16T15:24:38;19.50;66.80
48734;DHT22;34530;52.084;5.146;2022-10-16T15:27:04;19.60;66.90
48734;DHT22;34530;52.084;5.146;2022-10-16T15:29:29;19.60;67.20
48734;DHT22;34530;52.084;5.146;2022-10-16T15:31:55;19.60;66.90
48734;DHT22;34530;52.084;5.146;2022-10-16T15:34:20;19.60;66.90
48734;DHT22;34530;52.084;5.146;2022-10-16T15:36:46;19.60;66.90
48734;DHT22;34530;52.084;5.146;2022-10-16T15:39:14;19.60;66.80
48734;DHT22;34530;52.084;5.146;2022-10-16T15:41:40;19.60;66.80
48734;DHT22;34530;52.084;5.146;2022-10-16T15:44:07;19.60;66.90
48734;DHT22;34530;52.084;5.146;2022-10-16T15:46:32;19.60;66.80
48734;DHT22;34530;52.084;5.146;2022-10-16T15:49:00;19.60;66.80
48734;DHT22;34530;52.084;5.146;2022-10-16T15:51:27;19.60;66.80
48734;DHT22;34530;52.084;5.146;2022-10-16T15:53:58;19.60;66.70
48734;DHT22;34530;52.084;5.146;2022-10-16T15:56:24;19.60;66.70
48734;DHT22;34530;52.084;5.146;2022-10-16T15:58:51;19.60;66.70
48734;DHT22;34530;52.084;5.146;2022-10-16T16:01:17;19.70;66.90
48734;DHT22;34530;52.084;5.146;2022-10-16T16:03:43;19.70;66.90
48734;DHT22;34530;52.084;5.146;2022-10-16T16:06:11;19.70;67.00
48734;DHT22;34530;52.084;5.146;2022-10-16T16:08:37;19.70;67.00
48734;DHT22;34530;52.084;5.146;2022-10-16T16:11:06;19.70;67.10
48734;DHT22;34530;52.084;5.146;2022-10-16T16:13:32;19.70;67.00
48734;DHT22;34530;52.084;5.146;2022-10-16T16:15:58;19.70;67.10
48734;DHT22;34530;52.084;5.146;2022-10-16T16:18:23;19.70;67.00
48734;DHT22;34530;52.084;5.146;2022-10-16T16:20:50;19.70;67.00
48734;DHT22;34530;52.084;5.146;2022-10-16T16:23:16;19.70;67.00
48734;DHT22;34530;52.084;5.146;2022-10-16T16:25:42;19.70;67.00
48734;DHT22;34530;52.084;5.146;2022-10-16T16:28:08;19.80;67.10
48734;DHT22;34530;52.084;5.146;2022-10-16T16:30:36;19.70;67.00
48734;DHT22;34530;52.084;5.146;2022-10-16T16:33:01;19.70;67.10
48734;DHT22;34530;52.084;5.146;2022-10-16T16:35:27;19.70;67.10
48734;DHT22;34530;52.084;5.146;2022-10-16T16:37:52;19.70;67.10
48734;DHT22;34530;52.084;5.146;2022-10-16T16:40:18;19.70;67.10
48734;DHT22;34530;52.084;5.146;2022-10-16T16:42:44;19.80;67.20
48734;DHT22;34530;52.084;5.146;2022-10-16T16:45:09;19.70;67.10
48734;DHT22;34530;52.084;5.146;2022-10-16T16:47:35;19.80;67.20
48734;DHT22;34530;52.084;5.146;2022-10-16T16:50:01;19.80;67.20
48734;DHT22;34530;52.084;5.146;2022-10-16T16:52:30;19.70;67.10
48734;DHT22;34530;52.084;5.146;2022-10-16T16:54:55;19.80;67.20
48734;DHT22;34530;52.084;5.146;2022-10-16T16:57:21;19.80;67.20
48734;DHT22;34530;52.084;5.146;2022-10-16T16:59:47;19.80;67.20
48734;DHT22;34530;52.084;5.146;2022-10-16T17:02:15;19.80;67.20
48734;DHT22;34530;52.084;5.146;2022-10-16T17:04:40;19.80;67.20
48734;DHT22;34530;52.084;5.146;2022-10-16T17:07:06;19.80;67.20
48734;DHT22;34530;52.084;5.146;2022-10-16T17:09:32;19.80;67.20
48734;DHT22;34530;52.084;5.146;2022-10-16T17:11:58;19.80;67.30
48734;DHT22;34530;52.084;5.146;2022-10-16T17:14:23;19.80;67.30
48734;DHT22;34530;52.084;5.146;2022-10-16T17:16:49;19.80;67.30
48734;DHT22;34530;52.084;5.146;2022-10-16T17:19:18;19.80;67.30
48734;DHT22;34530;52.084;5.146;2022-10-16T17:21:45;19.80;67.30
48734;DHT22;34530;52.084;5.146;2022-10-16T17:24:12;19.80;67.50
48734;DHT22;34530;52.084;5.146;2022-10-16T17:26:38;19.80;67.80
48734;DHT22;34530;52.084;5.146;2022-10-16T17:29:06;19.80;68.10
48734;DHT22;34530;52.084;5.146;2022-10-16T17:31:34;19.80;69.00
48734;DHT22;34530;52.084;5.146;2022-10-16T17:34:03;19.90;69.50
48734;DHT22;34530;52.084;5.146;2022-10-16T17:36:31;19.90;69.30
48734;DHT22;34530;52.084;5.146;2022-10-16T17:39:02;19.90;69.50
48734;DHT22;34530;52.084;5.146;2022-10-16T17:41:29;19.90;69.70
48734;DHT22;34530;52.084;5.146;2022-10-16T17:43:55;19.90;70.20
48734;DHT22;34530;52.084;5.146;2022-10-16T17:46:22;20.00;70.60
48734;DHT22;34530;52.084;5.146;2022-10-16T17:48:50;20.00;71.00